Time;durP1;ratioP1;P1;durP2;ratioP2;P2;SDS_P1;SDS_P2;PMS_P1;PMS_P2;Temp;Humidity;BMP_temperature;BMP_pressure;BME280_temperature;BME280_humidity;BME280_pressure;Samples;Min_cycle;Max_cycle;Signal;HPM_P1;HPM_P2
2021/06/20 00:00:27;;;;;;;;;7.50;7.50;;;;;26.85;51.87;100122.28;5101915;27;45263;-70
2021/06/20 00:02:52;;;;;;;;;10.00;7.75;;;;;26.87;51.62;100114.16;5101928;27;45374;-70
2021/06/20 00:05:28;;;;;;;;;5.75;5.75;;;;;26.84;51.39;100115.19;5083956;27;45458;-70
2021/06/20 00:07:54;;;;;;;;;8.00;7.75;;;;;26.83;51.48;100123.34;5084487;27;45243;-70
2021/06/20 00:10:22;;;;;;;;;9.00;7.00;;;;;26.86;51.97;100113.28;5066433;27;48110;-69
2021/06/20 00:12:48;;;;;;;;;7.00;7.00;;;;;26.88;51.49;100122.06;5083724;27;45212;-69
2021/06/20 00:15:15;;;;;;;;;9.25;8.00;;;;;26.87;51.35;100122.19;5101988;27;49129;-70
2021/06/20 00:17:40;;;;;;;;;8.75;7.75;;;;;26.83;51.40;100117.97;5101964;27;45268;-69
2021/06/20 00:20:07;;;;;;;;;7.00;7.00;;;;;26.80;51.31;100108.34;5066707;27;46069;-69
2021/06/20 00:22:32;;;;;;;;;10.00;9.00;;;;;26.75;51.04;100127.38;5083498;27;45260;-70
2021/06/20 00:24:58;;;;;;;;;9.00;8.75;;;;;26.70;51.31;100126.00;5083163;27;52144;-70
2021/06/20 00:27:23;;;;;;;;;10.00;9.00;;;;;26.67;51.55;100119.03;5101443;27;45484;-70
2021/06/20 00:29:49;;;;;;;;;7.00;6.25;;;;;26.72;51.08;100122.25;5052948;27;47222;-70
2021/06/20 00:32:14;;;;;;;;;7.25;7.25;;;;;26.69;50.75;100098.38;5083304;27;45371;-69
2021/06/20 00:34:39;;;;;;;;;8.50;7.50;;;;;26.68;50.49;100093.13;5049642;27;45269;-69
2021/06/20 00:37:06;;;;;;;;;8.00;7.25;;;;;26.63;50.75;100095.25;5058909;28;56376;-69
2021/06/20 00:39:32;;;;;;;;;5.00;5.00;;;;;26.64;50.24;100088.94;5076757;27;45290;-69
2021/06/20 00:41:57;;;;;;;;;7.25;7.25;;;;;26.63;50.26;100095.25;5059200;28;46330;-70
2021/06/20 00:44:23;;;;;;;;;7.00;7.00;;;;;26.58;50.22;100098.22;5049399;27;45207;-69
2021/06/20 00:46:48;;;;;;;;;6.00;6.00;;;;;26.54;49.76;100103.91;5101113;27;51977;-69
2021/06/20 00:49:13;;;;;;;;;5.75;5.75;;;;;26.49;50.07;100112.22;5082084;27;54255;-69
2021/06/20 00:51:39;;;;;;;;;4.00;4.00;;;;;26.49;49.72;100112.22;5082973;27;48257;-70
2021/06/20 00:54:05;;;;;;;;;5.25;5.25;;;;;26.47;49.58;100101.63;5066122;27;45400;-70
2021/06/20 00:56:32;;;;;;;;;6.50;4.75;;;;;26.46;49.89;100107.94;5059390;28;45294;-69
2021/06/20 00:59:04;;;;;;;;;5.00;4.00;;;;;26.42;49.62;100109.13;5042670;27;47337;-70
2021/06/20 01:01:33;;;;;;;;;5.00;5.00;;;;;26.42;49.18;100106.44;5101067;27;45452;-70
2021/06/20 01:03:59;;;;;;;;;5.00;5.00;;;;;26.41;49.76;100099.38;5065808;27;45405;-69
2021/06/20 01:06:25;;;;;;;;;7.00;4.25;;;;;26.39;49.05;100095.06;5083146;27;45347;-69
2021/06/20 01:08:50;;;;;;;;;4.25;3.00;;;;;26.41;48.58;100098.50;5082795;27;46581;-69
2021/06/20 01:11:15;;;;;;;;;7.25;6.25;;;;;26.42;49.43;100097.56;5100913;27;45287;-69
2021/06/20 01:13:43;;;;;;;;;4.50;4.50;;;;;26.44;48.78;100099.16;5082599;27;45246;-69
2021/06/20 01:16:08;;;;;;;;;5.00;4.00;;;;;26.42;49.05;100098.41;5082871;27;45483;-69
2021/06/20 01:18:33;;;;;;;;;4.00;4.00;;;;;26.41;49.09;100107.41;5082558;27;46151;-69
2021/06/20 01:20:59;;;;;;;;;4.00;3.75;;;;;26.43;48.58;100102.81;5082242;27;52468;-70
2021/06/20 01:23:25;;;;;;;;;4.50;4.50;;;;;26.42;49.09;100098.41;5082084;27;55622;-69
2021/06/20 01:25:51;;;;;;;;;6.00;5.00;;;;;26.45;48.71;100097.34;5065420;27;45317;-69
2021/06/20 01:28:17;;;;;;;;;4.00;3.50;;;;;26.46;48.82;100109.75;5065340;27;45830;-69
2021/06/20 01:30:46;;;;;;;;;4.25;3.50;;;;;26.47;48.28;100115.00;5065660;27;45365;-70
2021/06/20 01:33:12;;;;;;;;;4.50;4.50;;;;;26.41;48.85;100112.75;5049743;27;45212;-69
2021/06/20 01:35:38;;;;;;;;;5.00;4.00;;;;;26.40;48.81;100107.47;5100869;27;45242;-69
2021/06/20 01:38:04;;;;;;;;;4.25;4.25;;;;;26.39;48.62;100101.28;5100502;27;45299;-70
2021/06/20 01:40:30;;;;;;;;;4.00;3.75;;;;;26.37;48.49;100095.13;5056049;28;45441;-70
2021/06/20 01:42:55;;;;;;;;;4.25;4.25;;;;;26.36;49.16;100101.47;5077974;27;45398;-70
2021/06/20 01:45:21;;;;;;;;;4.00;4.00;;;;;26.37;48.26;100103.16;5082453;27;45349;-70
2021/06/20 01:47:48;;;;;;;;;4.00;4.00;;;;;26.30;48.80;100101.84;5081986;27;48464;-69
2021/06/20 01:50:14;;;;;;;;;6.25;5.25;;;;;26.30;48.88;100093.81;5065232;27;45297;-70
2021/06/20 01:52:40;;;;;;;;;3.50;3.50;;;;;26.32;49.24;100099.94;5064116;27;45256;-70
2021/06/20 01:55:07;;;;;;;;;3.50;3.50;;;;;26.32;48.95;100086.53;5082291;27;45245;-69
2021/06/20 01:57:34;;;;;;;;;4.75;4.75;;;;;26.32;48.67;100093.72;5064937;27;46424;-69
2021/06/20 02:00:00;;;;;;;;;4.00;4.00;;;;;26.28;48.79;100094.91;5067779;27;45375;-70
2021/06/20 02:02:27;;;;;;;;;4.75;3.75;;;;;26.24;49.24;100083.56;5104053;27;45335;-69
2021/06/20 02:04:54;;;;;;;;;7.25;5.50;;;;;26.24;48.93;100078.19;5068873;27;45260;-69
2021/06/20 02:07:20;;;;;;;;;4.50;4.50;;;;;26.20;49.35;100082.03;5086066;27;45377;-70
2021/06/20 02:09:45;;;;;;;;;5.25;3.50;;;;;26.20;49.39;100088.22;5103564;27;53677;-70
2021/06/20 02:12:11;;;;;;;;;6.00;6.00;;;;;26.21;49.04;100081.06;5084551;27;60589;-70
2021/06/20 02:14:37;;;;;;;;;4.75;4.75;;;;;26.27;48.97;100087.84;5103920;27;45165;-69
2021/06/20 02:17:23;;;;;;;;;6.00;5.00;;;;;26.22;49.14;100074.75;5103443;27;46448;-69
2021/06/20 02:19:53;;;;;;;;;6.00;5.00;;;;;26.17;49.09;100088.44;5087387;27;45484;-69
2021/06/20 02:22:21;;;;;;;;;4.50;4.50;;;;;26.14;49.38;100085.09;5103755;27;45463;-69
2021/06/20 02:24:47;;;;;;;;;5.00;5.00;;;;;26.11;49.46;100094.19;5085322;27;45217;-69
2021/06/20 02:27:13;;;;;;;;;5.00;5.00;;;;;26.15;49.53;100101.06;5085045;27;45248;-70
2021/06/20 02:29:38;;;;;;;;;6.00;5.00;;;;;26.21;49.33;100105.13;5085435;27;45257;-70
2021/06/20 02:32:08;;;;;;;;;5.25;5.25;;;;;26.22;49.39;100106.84;5085572;27;45431;-70
2021/06/20 02:34:33;;;;;;;;;6.00;4.75;;;;;26.18;48.97;100106.22;5050859;27;45296;-69
2021/06/20 02:36:58;;;;;;;;;3.00;3.00;;;;;26.15;49.36;100100.19;5084585;27;58504;-69
2021/06/20 02:39:24;;;;;;;;;6.00;4.75;;;;;26.11;49.49;100106.69;5068344;27;45278;-70
2021/06/20 02:41:50;;;;;;;;;5.25;5.00;;;;;26.08;49.67;100117.63;5050211;27;65865;-70
2021/06/20 02:44:19;;;;;;;;;4.25;4.25;;;;;26.06;49.69;100120.38;5103200;27;45231;-69
2021/06/20 02:46:44;;;;;;;;;7.00;6.00;;;;;26.11;49.38;100125.44;5084327;27;63548;-70
2021/06/20 02:49:10;;;;;;;;;4.00;4.00;;;;;26.13;49.49;100128.84;5103226;27;46714;-70
2021/06/20 02:51:35;;;;;;;;;4.00;4.00;;;;;26.11;49.75;100122.75;5103003;27;50638;-70
2021/06/20 02:54:00;;;;;;;;;5.75;5.75;;;;;26.10;49.55;100123.72;5064409;28;45548;-70
2021/06/20 02:56:26;;;;;;;;;4.50;4.50;;;;;26.09;49.44;100116.66;5047286;28;48752;-70
2021/06/20 02:58:51;;;;;;;;;6.75;5.00;;;;;26.09;49.46;100116.66;5067577;27;53895;-69
2021/06/20 03:01:17;;;;;;;;;6.25;5.25;;;;;26.07;49.42;100131.94;5084805;27;45937;-70
2021/06/20 03:03:42;;;;;;;;;6.00;6.00;;;;;26.06;49.52;100128.41;5102690;27;57544;-70
2021/06/20 03:06:07;;;;;;;;;5.50;5.50;;;;;26.04;49.20;100121.44;5102350;27;60730;-70
2021/06/20 03:08:33;;;;;;;;;7.50;5.50;;;;;25.99;49.35;100113.72;5064383;28;45268;-70
2021/06/20 03:10:58;;;;;;;;;5.00;5.00;;;;;26.02;49.03;100110.84;5064917;27;60616;-70
2021/06/20 03:13:24;;;;;;;;;4.00;4.00;;;;;26.00;49.21;100122.59;5084625;27;45283;-70
2021/06/20 03:15:49;;;;;;;;;4.00;4.00;;;;;26.04;49.22;100124.97;5084542;27;46089;-70
2021/06/20 03:18:14;;;;;;;;;5.75;5.75;;;;;26.06;48.95;100114.16;5072521;28;59057;-69
2021/06/20 03:20:40;;;;;;;;;6.00;5.00;;;;;26.03;48.93;100111.69;5081457;27;63380;-70
2021/06/20 03:23:10;;;;;;;;;4.00;4.00;;;;;25.99;49.00;100112.88;5084481;27;45386;-69
2021/06/20 03:25:35;;;;;;;;;4.25;3.75;;;;;25.96;48.97;100110.38;5083983;27;47334;-69
2021/06/20 03:28:00;;;;;;;;;4.50;4.00;;;;;25.90;48.67;100108.97;5067290;27;50918;-70
2021/06/20 03:30:26;;;;;;;;;4.00;3.00;;;;;25.88;48.79;100113.53;5050596;27;45783;-70
2021/06/20 03:32:52;;;;;;;;;4.50;4.25;;;;;25.84;48.19;100112.88;5067697;27;45442;-69
2021/06/20 03:35:18;;;;;;;;;4.00;3.00;;;;;25.79;48.98;100116.78;5067159;27;47399;-69
2021/06/20 03:37:43;;;;;;;;;5.25;5.00;;;;;25.77;48.73;100114.22;5067319;27;45422;-69
2021/06/20 03:40:09;;;;;;;;;3.00;3.00;;;;;25.77;49.02;100111.53;5083547;27;58501;-70
2021/06/20 03:42:34;;;;;;;;;5.00;3.75;;;;;25.70;48.87;100095.97;5084268;27;45434;-70
2021/06/20 03:45:00;;;;;;;;;4.00;4.00;;;;;25.69;48.75;100099.59;5067095;27;45544;-69
2021/06/20 03:47:25;;;;;;;;;3.50;3.00;;;;;25.70;48.63;100102.16;5039327;28;45259;-69
2021/06/20 03:49:50;;;;;;;;;3.00;3.00;;;;;25.70;48.67;100115.53;5050540;27;45586;-69
2021/06/20 03:52:16;;;;;;;;;3.00;3.00;;;;;25.71;48.69;100109.25;5062815;28;64889;-69
2021/06/20 03:54:41;;;;;;;;;2.75;2.75;;;;;25.74;48.59;100109.09;5099304;27;46231;-70
2021/06/20 03:57:06;;;;;;;;;4.00;2.50;;;;;25.70;48.51;100110.19;5101523;27;59283;-68
2021/06/20 03:59:32;;;;;;;;;4.00;3.75;;;;;25.65;48.20;100093.59;5083784;27;45264;-68
2021/06/20 04:01:57;;;;;;;;;3.75;3.75;;;;;25.64;48.28;100099.91;5066915;27;45343;-68
2021/06/20 04:04:23;;;;;;;;;5.50;4.00;;;;;25.64;48.26;100110.59;5083282;27;55563;-68
2021/06/20 04:06:48;;;;;;;;;3.50;3.50;;;;;25.59;48.93;100104.66;5101787;27;56714;-68
2021/06/20 04:09:14;;;;;;;;;2.75;2.50;;;;;25.62;47.92;100112.47;5083816;27;45255;-68
2021/06/20 04:11:39;;;;;;;;;3.50;2.00;;;;;25.64;48.30;100115.94;5083687;27;45542;-68
2021/06/20 04:14:05;;;;;;;;;3.00;3.00;;;;;25.61;48.34;100118.78;5083232;27;45410;-68
2021/06/20 04:16:30;;;;;;;;;2.25;2.25;;;;;25.59;48.13;100123.38;5066454;27;50609;-69
2021/06/20 04:18:57;;;;;;;;;3.25;3.25;;;;;25.58;48.09;100132.34;5101209;27;58732;-69
2021/06/20 04:21:23;;;;;;;;;2.00;2.00;;;;;25.52;48.27;100127.38;5083704;27;45635;-69
2021/06/20 04:23:48;;;;;;;;;4.00;4.00;;;;;25.56;47.70;100136.94;5044973;28;45520;-69
2021/06/20 04:26:14;;;;;;;;;3.00;3.00;;;;;25.57;48.58;100144.00;5092748;27;45375;-69
2021/06/20 04:28:40;;;;;;;;;3.00;3.00;;;;;25.59;48.14;100144.75;5101610;27;45281;-70
2021/06/20 04:31:06;;;;;;;;;3.00;3.00;;;;;25.62;48.06;100141.88;5102090;27;45223;-69
2021/06/20 04:33:31;;;;;;;;;4.00;3.00;;;;;25.65;48.41;100141.72;5083037;27;45264;-69
2021/06/20 04:35:58;;;;;;;;;3.00;3.00;;;;;25.63;48.14;100140.94;5066078;27;57470;-70
2021/06/20 04:38:23;;;;;;;;;3.00;3.00;;;;;25.62;47.96;100140.06;5083407;27;45291;-70
2021/06/20 04:40:49;;;;;;;;;2.00;2.00;;;;;25.63;47.41;100144.47;5066120;27;45266;-71
2021/06/20 04:43:26;;;;;;;;;1.25;1.25;;;;;25.56;47.25;100134.25;5048309;28;46985;-69
2021/06/20 04:45:51;;;;;;;;;4.00;4.00;;;;;25.50;47.91;100121.28;5093775;27;45275;-70
2021/06/20 04:48:17;;;;;;;;;4.00;3.25;;;;;25.42;48.16;100104.88;5082932;27;45502;-70
2021/06/20 04:50:42;;;;;;;;;3.50;3.50;;;;;25.46;48.03;100123.28;5066050;27;47188;-69
2021/06/20 04:53:08;;;;;;;;;6.25;4.00;;;;;25.47;48.07;100127.69;5100599;27;58054;-69
2021/06/20 04:55:33;;;;;;;;;4.00;3.00;;;;;25.46;48.27;100125.13;5100973;27;45354;-69
2021/06/20 04:57:58;;;;;;;;;2.75;2.75;;;;;25.51;47.87;100125.66;5061948;28;52692;-69
2021/06/20 05:00:24;;;;;;;;;2.75;2.75;;;;;25.52;47.59;100127.38;5048381;27;64156;-70
2021/06/20 05:02:49;;;;;;;;;3.25;3.25;;;;;25.48;47.94;100140.09;5065750;27;47060;-69
2021/06/20 05:05:15;;;;;;;;;3.00;3.00;;;;;25.48;47.96;100125.88;5101238;27;45270;-69
2021/06/20 05:07:41;;;;;;;;;4.25;3.25;;;;;25.49;47.70;100132.94;5065754;27;45256;-70
2021/06/20 05:10:07;;;;;;;;;4.25;2.75;;;;;25.50;47.48;100124.81;5082903;27;45521;-70
2021/06/20 05:12:35;;;;;;;;;3.25;3.25;;;;;25.38;47.64;100109.56;5048688;27;47161;-70
2021/06/20 05:15:01;;;;;;;;;2.00;2.00;;;;;25.44;47.46;100132.34;5065810;27;45435;-70
2021/06/20 05:17:26;;;;;;;;;3.00;3.00;;;;;25.43;47.99;100133.28;5046997;28;45503;-70
2021/06/20 05:19:51;;;;;;;;;3.75;3.00;;;;;25.45;47.66;100142.06;5074390;27;45319;-69
2021/06/20 05:22:18;;;;;;;;;3.25;2.25;;;;;25.51;47.77;100147.03;5082299;27;47091;-70
2021/06/20 05:24:44;;;;;;;;;3.50;3.50;;;;;25.52;48.11;100152.28;5066130;27;45419;-70
2021/06/20 05:27:09;;;;;;;;;4.75;2.00;;;;;25.59;48.45;100150.09;5100776;27;45692;-70
2021/06/20 05:29:35;;;;;;;;;5.50;3.75;;;;;25.64;47.62;100137.31;5081624;27;67852;-70
2021/06/20 05:32:00;;;;;;;;;3.00;3.00;;;;;25.67;47.24;100136.25;5100671;27;46699;-70
2021/06/20 05:34:26;;;;;;;;;3.50;3.00;;;;;25.62;46.88;100128.50;5099611;27;65866;-70
2021/06/20 05:36:51;;;;;;;;;5.00;3.50;;;;;25.53;47.38;100129.09;5100853;27;45192;-69
2021/06/20 05:39:17;;;;;;;;;2.25;2.25;;;;;25.53;46.99;100134.44;5100713;27;45484;-70
2021/06/20 05:41:42;;;;;;;;;3.75;3.50;;;;;25.55;47.49;100143.25;5065126;27;45185;-71
2021/06/20 05:44:08;;;;;;;;;3.00;3.00;;;;;25.61;47.65;100142.84;5053231;28;58597;-69
2021/06/20 05:46:33;;;;;;;;;2.25;2.25;;;;;25.62;47.18;100137.38;5048626;27;45321;-70
2021/06/20 05:48:59;;;;;;;;;4.00;3.00;;;;;25.62;47.03;100133.84;5048124;27;59236;-70
2021/06/20 05:51:24;;;;;;;;;3.00;3.00;;;;;25.64;47.31;100135.50;5048255;27;47238;-70
2021/06/20 05:53:49;;;;;;;;;2.00;2.00;;;;;25.64;47.26;100138.19;5037088;28;45342;-69
2021/06/20 05:56:15;;;;;;;;;2.00;2.00;;;;;25.65;47.60;100149.72;5081366;27;57466;-70
2021/06/20 05:58:40;;;;;;;;;3.00;3.00;;;;;25.66;47.06;100154.09;5100277;27;45325;-70
2021/06/20 06:01:06;;;;;;;;;4.00;4.00;;;;;25.68;47.21;100154.00;5081202;27;54422;-69
2021/06/20 06:03:32;;;;;;;;;2.75;2.75;;;;;25.70;47.05;100149.41;5099800;27;56053;-69
2021/06/20 06:05:58;;;;;;;;;3.00;2.75;;;;;25.72;47.03;100139.53;5048457;27;45370;-69
2021/06/20 06:08:23;;;;;;;;;4.00;4.00;;;;;25.71;46.96;100144.00;5100402;27;45538;-70
2021/06/20 06:10:48;;;;;;;;;3.00;3.00;;;;;25.67;47.03;100153.16;5045921;28;65178;-70
2021/06/20 06:13:14;;;;;;;;;3.00;3.00;;;;;25.67;47.08;100149.63;5056118;27;45355;-70
2021/06/20 06:15:39;;;;;;;;;4.00;4.00;;;;;25.71;47.21;100162.72;5065086;27;45653;-70
2021/06/20 06:18:05;;;;;;;;;3.75;2.75;;;;;25.75;46.80;100158.06;5064865;27;45989;-69
2021/06/20 06:20:30;;;;;;;;;3.25;3.25;;;;;25.77;46.44;100148.97;5030395;28;47540;-69
2021/06/20 06:22:57;;;;;;;;;3.25;3.00;;;;;25.78;46.30;100149.81;5055424;27;52187;-70
2021/06/20 06:25:22;;;;;;;;;4.50;4.00;;;;;25.79;46.14;100138.19;5048224;27;45333;-70
2021/06/20 06:27:48;;;;;;;;;5.25;3.50;;;;;25.80;46.40;100150.59;5081117;27;60614;-71
2021/06/20 06:30:13;;;;;;;;;4.75;4.00;;;;;25.75;46.43;100144.69;5099897;27;46013;-70
2021/06/20 06:32:42;;;;;;;;;4.25;3.50;;;;;25.69;46.33;100145.03;5064968;27;45272;-69
2021/06/20 06:35:07;;;;;;;;;3.00;3.00;;;;;25.67;46.67;100137.13;5064908;27;45453;-70
2021/06/20 06:37:33;;;;;;;;;3.25;3.25;;;;;25.70;46.55;100144.06;5064982;27;45272;-70
2021/06/20 06:39:59;;;;;;;;;4.25;4.00;;;;;25.71;46.50;100144.00;5064600;27;45461;-71
2021/06/20 06:42:27;;;;;;;;;3.75;3.00;;;;;25.71;46.19;100138.66;5064664;27;47154;-69
2021/06/20 06:44:53;;;;;;;;;4.75;3.00;;;;;25.68;46.48;100132.63;5029862;28;45375;-70
2021/06/20 06:47:18;;;;;;;;;5.75;4.00;;;;;25.80;46.49;100155.94;5058903;27;45509;-70
2021/06/20 06:49:44;;;;;;;;;3.50;3.00;;;;;25.82;46.20;100146.88;5084775;27;45696;-69
2021/06/20 06:52:12;;;;;;;;;3.50;3.50;;;;;25.85;46.40;100149.34;5067942;27;45473;-69
2021/06/20 06:54:37;;;;;;;;;4.00;3.00;;;;;25.93;46.14;100135.50;5068284;27;45423;-70
2021/06/20 06:57:05;;;;;;;;;5.00;5.00;;;;;25.95;46.22;100146.09;5102924;27;45525;-70
2021/06/20 06:59:33;;;;;;;;;3.00;2.75;;;;;25.88;45.64;100138.44;5084254;27;47033;-69
2021/06/20 07:01:59;;;;;;;;;6.00;4.50;;;;;25.94;46.19;100150.56;5084778;27;45276;-69
2021/06/20 07:04:24;;;;;;;;;6.50;5.75;;;;;25.93;45.51;100144.38;5084796;27;45785;-69
2021/06/20 07:06:49;;;;;;;;;5.25;3.00;;;;;26.04;45.77;100161.53;5084082;27;60825;-71
2021/06/20 07:09:15;;;;;;;;;4.25;3.00;;;;;26.06;45.71;100156.94;5102918;27;45341;-70
2021/06/20 07:11:41;;;;;;;;;2.75;2.50;;;;;26.15;45.33;100161.69;5102722;27;45260;-70
2021/06/20 07:14:06;;;;;;;;;4.75;3.00;;;;;26.18;45.15;100167.72;5084384;27;45422;-70
2021/06/20 07:16:32;;;;;;;;;2.00;2.00;;;;;26.20;44.74;100168.47;5050799;27;45332;-70
2021/06/20 07:18:57;;;;;;;;;4.00;4.00;;;;;26.24;44.88;100160.25;5102239;27;54546;-69
2021/06/20 07:21:23;;;;;;;;;4.00;4.00;;;;;26.26;44.97;100161.03;5063884;28;45249;-69
2021/06/20 07:23:48;;;;;;;;;3.50;3.50;;;;;26.30;44.97;100163.38;5050679;27;45826;-69
2021/06/20 07:26:13;;;;;;;;;4.00;4.00;;;;;26.35;44.43;100169.31;5050516;27;45449;-69
2021/06/20 07:28:39;;;;;;;;;4.25;3.00;;;;;26.36;44.49;100163.00;5067075;27;46074;-70
2021/06/20 07:31:05;;;;;;;;;4.00;4.00;;;;;26.35;44.42;100160.44;5039504;28;45282;-70
2021/06/20 07:33:33;;;;;;;;;3.25;3.25;;;;;26.42;44.67;100167.13;5067134;27;45327;-69
2021/06/20 07:35:58;;;;;;;;;4.25;3.25;;;;;26.45;44.78;100177.63;5066662;27;45198;-70
2021/06/20 07:38:24;;;;;;;;;4.50;4.00;;;;;26.47;44.77;100171.19;5102190;27;45350;-69
2021/06/20 07:40:50;;;;;;;;;3.00;3.00;;;;;26.49;44.37;100163.91;5083942;27;45392;-70
2021/06/20 07:43:15;;;;;;;;;3.50;3.00;;;;;26.53;44.68;100163.75;5067064;27;45288;-70
2021/06/20 07:45:40;;;;;;;;;6.00;5.25;;;;;26.51;44.40;100155.81;5084057;27;45555;-70
2021/06/20 07:48:07;;;;;;;;;3.50;3.50;;;;;26.55;44.32;100151.09;5101933;27;45584;-70
2021/06/20 07:50:32;;;;;;;;;4.00;4.00;;;;;26.59;44.33;100147.28;5066788;27;45461;-70
2021/06/20 07:53:04;;;;;;;;;4.25;4.25;;;;;26.63;44.21;100146.97;5050134;27;45445;-72
2021/06/20 07:55:35;;;;;;;;;3.75;3.75;;;;;26.65;43.96;100153.06;5083658;27;45296;-70
2021/06/20 07:58:01;;;;;;;;;5.25;4.75;;;;;26.69;43.67;100148.38;5101540;27;45251;-71
2021/06/20 08:00:26;;;;;;;;;4.25;4.25;;;;;26.69;43.82;100137.66;5102018;27;45204;-72
2021/06/20 08:02:52;;;;;;;;;3.50;3.25;;;;;26.59;43.82;100120.53;5066847;27;45193;-70
2021/06/20 08:05:17;;;;;;;;;3.00;3.00;;;;;26.70;43.92;100137.56;5101316;27;65548;-70
2021/06/20 08:07:43;;;;;;;;;4.00;4.00;;;;;26.71;44.03;100143.78;5101369;27;60413;-70
2021/06/20 08:10:26;;;;;;;;;4.00;3.00;;;;;26.75;43.92;100134.56;5085317;27;45220;-70
2021/06/20 08:12:51;;;;;;;;;4.50;3.00;;;;;26.72;43.77;100127.59;5088278;27;45259;-70
2021/06/20 08:15:17;;;;;;;;;4.00;4.00;;;;;26.82;44.14;100143.03;5087004;27;56824;-69
2021/06/20 08:17:42;;;;;;;;;5.00;4.00;;;;;26.83;43.84;100140.25;5104997;27;47965;-69
2021/06/20 08:20:38;;;;;;;;;5.25;4.25;;;;;26.87;44.04;100141.78;5104992;27;45217;-68
2021/06/20 08:23:03;;;;;;;;;3.00;3.00;;;;;26.84;43.16;100125.91;5059475;28;45539;-70
2021/06/20 08:25:29;;;;;;;;;4.00;4.00;;;;;26.83;42.95;100126.00;5078830;28;68097;-69
2021/06/20 08:27:54;;;;;;;;;6.25;5.25;;;;;26.81;43.03;100123.44;5080626;27;61227;-70
2021/06/20 08:30:23;;;;;;;;;5.00;4.00;;;;;26.86;43.26;100123.16;5079364;28;59963;-70
2021/06/20 08:32:48;;;;;;;;;4.50;4.50;;;;;26.88;43.26;100122.06;5081210;27;45333;-69
2021/06/20 08:35:16;;;;;;;;;2.75;2.75;;;;;26.93;43.73;100129.78;5079032;28;60510;-69
2021/06/20 08:37:42;;;;;;;;;4.50;4.50;;;;;26.95;43.01;100127.88;5079750;28;46036;-69
2021/06/20 08:40:08;;;;;;;;;5.00;3.75;;;;;26.96;42.90;100125.09;5059056;28;45590;-69
2021/06/20 08:42:33;;;;;;;;;3.00;3.00;;;;;27.00;42.84;100139.97;5072547;28;45306;-71
2021/06/20 08:44:59;;;;;;;;;4.00;3.00;;;;;27.01;42.79;100130.09;5062831;28;45366;-69
2021/06/20 08:47:24;;;;;;;;;5.00;4.00;;;;;27.01;43.13;100138.13;5046031;28;47886;-69
2021/06/20 08:49:49;;;;;;;;;3.50;3.00;;;;;27.04;42.78;100141.53;5092756;27;45411;-69
2021/06/20 08:52:17;;;;;;;;;5.00;5.00;;;;;27.02;42.71;100132.69;5075751;28;45366;-68
2021/06/20 08:55:01;;;;;;;;;3.00;3.00;;;;;27.03;42.92;100131.78;5079284;28;45453;-69
2021/06/20 08:57:32;;;;;;;;;4.00;4.00;;;;;27.04;42.96;100122.78;5080445;27;45386;-69
2021/06/20 08:59:57;;;;;;;;;4.25;3.25;;;;;27.08;42.88;100112.69;5061044;28;45251;-70
2021/06/20 09:02:26;;;;;;;;;4.00;3.00;;;;;27.08;42.71;100111.84;5080739;27;45986;-69
2021/06/20 09:04:56;;;;;;;;;4.50;4.00;;;;;27.11;42.74;100111.63;5079703;28;45450;-69
2021/06/20 09:07:48;;;;;;;;;3.00;3.00;;;;;27.13;42.90;100097.16;5080486;28;46144;-70
2021/06/20 09:10:21;;;;;;;;;3.00;2.00;;;;;27.13;42.64;100075.72;5078267;27;56340;-69
2021/06/20 09:12:56;;;;;;;;;3.25;3.25;;;;;27.18;42.99;100078.94;5062517;28;45478;-69
2021/06/20 09:15:26;;;;;;;;;3.00;3.00;;;;;27.20;42.51;100073.50;5062932;28;45461;-70
2021/06/20 09:17:54;;;;;;;;;4.00;3.75;;;;;27.20;42.57;100068.13;5045442;28;47308;-70
2021/06/20 09:20:33;;;;;;;;;5.00;4.00;;;;;27.20;42.89;100071.66;5078896;28;45389;-70
2021/06/20 09:23:05;;;;;;;;;4.00;4.00;;;;;27.22;42.40;100072.41;5062933;28;45364;-70
2021/06/20 09:25:30;;;;;;;;;5.00;3.25;;;;;27.23;42.88;100059.88;5044021;28;45412;-70
2021/06/20 09:27:57;;;;;;;;;4.25;3.00;;;;;27.22;42.25;100056.31;5050886;28;46285;-70
2021/06/20 09:30:23;;;;;;;;;3.25;3.25;;;;;27.24;42.05;100045.50;5042057;28;45394;-70
2021/06/20 09:33:15;;;;;;;;;4.25;4.25;;;;;27.24;42.40;100037.47;5036882;28;45440;-70
2021/06/20 09:35:42;;;;;;;;;5.25;5.25;;;;;27.24;42.10;100035.63;5058309;28;45367;-69
2021/06/20 09:38:09;;;;;;;;;5.75;4.50;;;;;27.28;42.42;100044.34;5079005;28;47250;-70
2021/06/20 09:40:34;;;;;;;;;4.00;4.00;;;;;27.28;42.19;100055.06;5061946;28;45316;-70
2021/06/20 09:43:19;;;;;;;;;4.25;4.25;;;;;27.27;42.49;100058.66;5061914;28;45329;-70
2021/06/20 09:45:48;;;;;;;;;2.00;1.75;;;;;27.28;42.12;100066.63;5079206;28;45461;-69
2021/06/20 09:48:25;;;;;;;;;3.75;3.75;;;;;27.31;42.10;100066.38;5061642;28;45197;-70
2021/06/20 09:50:50;;;;;;;;;4.75;4.75;;;;;27.34;42.74;100059.94;5045268;28;45500;-69
2021/06/20 09:53:39;;;;;;;;;4.00;4.00;;;;;27.35;42.20;100052.75;5045219;28;45331;-70
2021/06/20 09:56:15;;;;;;;;;3.25;3.25;;;;;27.42;42.25;100054.03;5078510;28;45676;-69
2021/06/20 09:58:45;;;;;;;;;4.50;4.50;;;;;27.45;41.35;100061.84;5078673;28;46278;-70
2021/06/20 10:01:14;;;;;;;;;3.00;3.00;;;;;27.48;41.65;100049.09;5045169;28;45435;-69
2021/06/20 10:03:40;;;;;;;;;45.00;34.25;;;;;27.51;41.79;100048.88;5045517;28;45334;-70
2021/06/20 10:06:05;;;;;;;;;8.00;7.25;;;;;27.49;41.17;100049.97;5061306;28;45573;-69
2021/06/20 10:08:34;;;;;;;;;5.50;4.25;;;;;27.57;41.25;100056.47;5078586;28;46197;-70
2021/06/20 10:11:00;;;;;;;;;4.00;4.00;;;;;27.59;41.63;100062.59;5078269;28;45301;-69
2021/06/20 10:13:25;;;;;;;;;5.00;5.00;;;;;27.61;42.00;100059.78;5078510;28;45439;-70
2021/06/20 10:15:53;;;;;;;;;5.25;5.00;;;;;27.59;41.71;100046.50;5057951;28;45269;-70
2021/06/20 10:18:19;;;;;;;;;3.25;3.25;;;;;27.61;41.25;100035.66;5053734;28;45493;-70
2021/06/20 10:20:47;;;;;;;;;3.00;3.00;;;;;27.60;40.95;100032.13;5043760;28;45784;-70
2021/06/20 10:23:31;;;;;;;;;5.00;4.00;;;;;27.57;41.28;100026.16;5058349;28;45354;-69
2021/06/20 10:26:07;;;;;;;;;5.00;4.50;;;;;27.58;41.05;100028.72;5081846;28;45267;-70
2021/06/20 10:28:32;;;;;;;;;5.00;4.25;;;;;27.57;40.72;100021.63;5046371;28;47871;-71
2021/06/20 10:31:06;;;;;;;;;4.50;3.75;;;;;27.56;40.55;100022.59;5063990;28;45406;-70
2021/06/20 10:33:37;;;;;;;;;4.00;3.00;;;;;27.46;40.66;99994.75;5064965;28;45270;-70
2021/06/20 10:36:04;;;;;;;;;5.25;4.00;;;;;27.55;40.35;100012.84;5083101;27;45295;-68
2021/06/20 10:38:41;;;;;;;;;3.00;3.00;;;;;27.54;40.88;100002.22;5061271;28;45541;-69
2021/06/20 10:41:08;;;;;;;;;4.25;4.00;;;;;27.55;40.73;99993.25;5073931;28;45208;-70
2021/06/20 10:43:34;;;;;;;;;4.25;3.00;;;;;27.53;40.34;99969.19;5081586;28;45262;-70
2021/06/20 10:46:00;;;;;;;;;5.75;5.75;;;;;27.55;40.43;99947.66;5081466;28;45264;-71
2021/06/20 10:48:29;;;;;;;;;4.50;4.50;;;;;27.59;40.04;99943.78;5081692;28;45527;-69
2021/06/20 10:50:57;;;;;;;;;3.50;3.50;;;;;27.61;40.30;99940.00;5081597;28;45263;-70
2021/06/20 10:53:26;;;;;;;;;4.00;4.00;;;;;27.54;40.36;99917.31;5081842;28;45361;-70
2021/06/20 10:55:59;;;;;;;;;4.00;4.00;;;;;27.63;40.60;99928.31;5081186;28;45430;-69
2021/06/20 10:58:26;;;;;;;;;6.75;6.75;;;;;27.59;40.00;99914.28;5047361;28;47148;-70
2021/06/20 11:01:04;;;;;;;;;4.00;3.00;;;;;27.63;40.39;99920.25;5047429;28;45634;-69
2021/06/20 11:03:29;;;;;;;;;5.00;3.75;;;;;27.61;39.81;99931.97;5081660;28;45514;-70
2021/06/20 11:06:04;;;;;;;;;4.50;4.50;;;;;27.61;40.38;99926.59;5080870;28;57199;-69
2021/06/20 11:08:41;;;;;;;;;4.00;4.00;;;;;27.63;40.19;99912.22;5081206;28;47208;-69
2021/06/20 11:11:32;;;;;;;;;3.00;3.00;;;;;27.61;39.99;99885.53;5048436;28;45327;-68
2021/06/20 11:13:57;;;;;;;;;3.00;3.00;;;;;27.63;39.46;99890.78;5080948;28;45345;-69
2021/06/20 11:16:39;;;;;;;;;5.00;5.00;;;;;27.60;39.27;99884.69;5082529;27;45404;-70
2021/06/20 11:19:04;;;;;;;;;4.75;4.00;;;;;27.61;39.40;99888.22;5063874;28;47174;-69
2021/06/20 11:21:34;;;;;;;;;4.75;4.00;;;;;27.57;39.16;99889.44;5080924;28;45208;-69
2021/06/20 11:23:59;;;;;;;;;8.75;5.00;;;;;27.57;38.47;99889.44;5064199;28;45431;-70
2021/06/20 11:26:25;;;;;;;;;4.25;4.25;;;;;27.53;39.25;99902.19;5081017;28;45393;-70